Time;durP1;ratioP1;P1;durP2;ratioP2;P2;SDS_P1;SDS_P2;PMS_P1;PMS_P2;Temp;Humidity;BMP_temperature;BMP_pressure;BME280_temperature;BME280_humidity;BME280_pressure;Samples;Min_cycle;Max_cycle;Signal;HPM_P1;HPM_P2
2023/10/16 00:01:51;;;;;;;2.70;0.50;;;6.40;99.90;;;;;;5031883;28;20062;-72
2023/10/16 00:04:18;;;;;;;3.25;0.60;;;6.30;99.90;;;;;;5043781;28;20428;-72
2023/10/16 00:06:49;;;;;;;1.48;0.60;;;6.30;99.90;;;;;;5037155;28;20128;-72
2023/10/16 00:09:15;;;;;;;0.95;0.60;;;6.20;99.90;;;;;;5056997;28;20048;-72
2023/10/16 00:11:41;;;;;;;2.53;0.73;;;6.20;99.90;;;;;;5029339;28;20587;-72
2023/10/16 00:14:23;;;;;;;4.15;0.50;;;6.20;99.90;;;;;;5056742;28;20036;-72
2023/10/16 00:16:50;;;;;;;3.40;0.73;;;6.20;99.90;;;;;;5033017;28;20475;-72
2023/10/16 00:19:16;;;;;;;3.20;0.70;;;6.20;99.90;;;;;;5047804;28;20103;-72
2023/10/16 00:21:46;;;;;;;1.58;0.55;;;6.30;99.90;;;;;;5053080;28;20037;-72
2023/10/16 00:24:12;;;;;;;1.88;0.50;;;6.40;99.90;;;;;;5039281;28;20116;-72
2023/10/16 00:26:42;;;;;;;5.05;0.60;;;6.50;99.90;;;;;;5047709;28;20053;-72
2023/10/16 00:29:17;;;;;;;4.00;0.60;;;6.50;99.90;;;;;;5029475;28;20072;-72
2023/10/16 00:31:43;;;;;;;4.93;0.75;;;6.60;99.90;;;;;;5036305;28;20082;-72
2023/10/16 00:34:09;;;;;;;3.17;1.35;;;6.60;99.90;;;;;;5033768;28;20036;-72
2023/10/16 00:36:35;;;;;;;3.53;0.70;;;6.60;99.90;;;;;;5044191;28;20076;-72
2023/10/16 00:39:12;;;;;;;5.88;0.80;;;6.70;99.90;;;;;;5058645;28;20084;-72
2023/10/16 00:41:39;;;;;;;2.63;0.52;;;6.70;99.90;;;;;;5034248;28;20123;-72
2023/10/16 00:44:05;;;;;;;6.55;0.77;;;6.70;99.90;;;;;;5043449;28;20045;-72
2023/10/16 00:46:37;;;;;;;2.30;1.30;;;6.60;99.90;;;;;;5043146;28;20041;-72
2023/10/16 00:49:06;;;;;;;1.42;0.47;;;6.60;99.90;;;;;;5042828;28;20032;-72
2023/10/16 00:51:36;;;;;;;3.42;0.70;;;6.60;99.90;;;;;;5042439;28;20042;-72
2023/10/16 00:54:04;;;;;;;4.45;0.50;;;6.50;99.90;;;;;;5044705;28;20081;-72
2023/10/16 00:56:30;;;;;;;2.42;0.57;;;6.50;99.90;;;;;;5023222;28;20051;-72
2023/10/16 00:58:56;;;;;;;5.32;0.50;;;6.40;99.90;;;;;;5027240;28;20037;-72
2023/10/16 01:01:25;;;;;;;1.33;0.60;;;6.40;99.90;;;;;;5029642;28;20406;-72
2023/10/16 01:03:57;;;;;;;3.75;0.43;;;6.30;99.90;;;;;;5036674;28;20115;-72
2023/10/16 01:06:36;;;;;;;1.45;0.68;;;6.30;99.90;;;;;;5045304;28;20053;-72
2023/10/16 01:09:09;;;;;;;2.67;0.60;;;6.30;99.90;;;;;;5044648;28;20689;-72
2023/10/16 01:11:37;;;;;;;3.92;0.55;;;6.30;99.90;;;;;;5029871;28;20037;-72
2023/10/16 01:14:04;;;;;;;1.63;0.50;;;6.20;99.90;;;;;;5043835;28;20041;-72
2023/10/16 01:16:30;;;;;;;2.97;0.50;;;6.20;99.90;;;;;;5051494;28;20446;-72
2023/10/16 01:19:00;;;;;;;3.70;0.57;;;6.20;99.90;;;;;;5054537;28;20502;-72
2023/10/16 01:21:27;;;;;;;1.30;0.40;;;6.20;99.90;;;;;;5043091;28;20045;-72
2023/10/16 01:23:55;;;;;;;2.10;0.50;;;6.20;99.90;;;;;;5041126;28;20792;-72
2023/10/16 01:26:21;;;;;;;3.85;0.80;;;6.30;99.90;;;;;;5039982;28;20051;-72
2023/10/16 01:28:47;;;;;;;2.25;0.50;;;6.40;99.90;;;;;;5060676;28;20127;-72
2023/10/16 01:31:13;;;;;;;5.10;0.60;;;6.50;99.90;;;;;;5057713;28;20069;-72
2023/10/16 01:33:44;;;;;;;3.20;0.50;;;6.50;99.90;;;;;;5042601;28;20558;-72
2023/10/16 01:36:10;;;;;;;3.58;0.75;;;6.60;99.90;;;;;;5043667;28;20108;-72
2023/10/16 01:38:36;;;;;;;1.83;0.70;;;6.60;99.90;;;;;;5044185;28;20041;-72
2023/10/16 01:41:05;;;;;;;4.97;0.55;;;6.60;99.90;;;;;;5035016;28;20033;-72
2023/10/16 01:43:32;;;;;;;3.03;0.40;;;6.70;99.90;;;;;;5040599;28;20120;-72
2023/10/16 01:46:15;;;;;;;3.33;0.60;;;6.60;99.90;;;;;;5034931;28;20071;-72
2023/10/16 01:48:46;;;;;;;3.88;0.50;;;6.60;99.90;;;;;;5053920;28;20491;-72
2023/10/16 01:51:19;;;;;;;2.22;0.60;;;6.60;99.90;;;;;;5050230;28;20073;-72
2023/10/16 01:53:47;;;;;;;1.00;0.70;;;6.70;99.90;;;;;;5032502;28;20049;-72
2023/10/16 01:56:14;;;;;;;1.77;0.52;;;6.70;99.90;;;;;;5039013;28;20045;-72
2023/10/16 01:58:43;;;;;;;3.10;1.00;;;6.70;99.90;;;;;;5044185;28;20036;-72
2023/10/16 02:01:16;;;;;;;3.55;0.40;;;6.80;99.90;;;;;;5049519;28;20076;-72
2023/10/16 02:03:44;;;;;;;2.25;0.43;;;6.80;99.90;;;;;;5052817;28;20060;-72
2023/10/16 02:06:13;;;;;;;5.30;0.70;;;6.90;99.90;;;;;;5046176;28;20119;-72
2023/10/16 02:08:44;;;;;;;2.92;0.60;;;6.90;99.90;;;;;;5025484;28;20117;-72
2023/10/16 02:11:11;;;;;;;3.25;0.60;;;7.00;99.90;;;;;;5040045;28;20068;-71
2023/10/16 02:13:40;;;;;;;1.55;0.50;;;7.00;99.90;;;;;;5025254;28;20037;-72
2023/10/16 02:16:12;;;;;;;1.48;0.50;;;7.00;99.90;;;;;;5044253;28;20041;-72
2023/10/16 02:18:42;;;;;;;2.70;0.50;;;7.00;99.90;;;;;;5040622;28;20119;-72
2023/10/16 02:21:11;;;;;;;3.35;0.60;;;7.10;99.90;;;;;;5043783;28;20048;-72
2023/10/16 02:23:46;;;;;;;3.40;0.60;;;7.00;99.90;;;;;;5047488;28;20052;-72
2023/10/16 02:26:12;;;;;;;4.85;1.67;;;6.90;99.90;;;;;;5054152;28;20076;-72
2023/10/16 02:28:41;;;;;;;1.55;0.40;;;6.80;99.90;;;;;;5043609;28;20138;-72
2023/10/16 02:31:15;;;;;;;2.58;0.32;;;6.70;99.90;;;;;;5043886;28;20037;-72
2023/10/16 02:33:50;;;;;;;1.08;0.40;;;6.70;99.90;;;;;;5036050;28;20116;-72
2023/10/16 02:36:20;;;;;;;1.95;0.40;;;6.60;99.90;;;;;;5040816;28;20113;-72
2023/10/16 02:38:49;;;;;;;1.50;0.50;;;6.60;99.90;;;;;;5060327;28;20044;-72
2023/10/16 02:41:19;;;;;;;2.95;0.60;;;6.60;99.90;;;;;;5049001;28;20048;-72
2023/10/16 02:43:46;;;;;;;5.43;0.60;;;6.70;99.90;;;;;;5027296;28;20037;-72
2023/10/16 02:46:13;;;;;;;2.30;0.85;;;6.80;99.90;;;;;;5041138;28;20048;-72
2023/10/16 02:48:43;;;;;;;2.17;0.47;;;6.90;99.90;;;;;;5043035;28;20052;-72
2023/10/16 02:51:09;;;;;;;2.38;0.60;;;6.80;99.90;;;;;;5055223;28;20164;-72
2023/10/16 02:53:36;;;;;;;3.47;0.43;;;6.90;99.90;;;;;;5028233;28;20045;-72
2023/10/16 02:56:37;;;;;;;2.25;0.40;;;7.00;99.90;;;;;;5021681;28;20124;-72
2023/10/16 02:58:55;;;;;;;2.08;0.40;;;7.00;99.90;;;;;;5035169;28;20041;-72
2023/10/16 03:01:21;;;;;;;1.40;0.60;;;7.00;99.90;;;;;;5026747;28;20086;-72
2023/10/16 03:03:48;;;;;;;4.30;0.40;;;7.00;99.90;;;;;;5039746;28;20602;-72
2023/10/16 03:06:15;;;;;;;2.72;0.50;;;7.00;99.90;;;;;;5039878;28;20041;-72
2023/10/16 03:08:48;;;;;;;3.50;0.40;;;7.00;99.90;;;;;;5048291;28;20087;-72
2023/10/16 03:11:17;;;;;;;1.60;0.50;;;7.00;99.90;;;;;;5042447;28;20041;-72
2023/10/16 03:13:43;;;;;;;1.30;0.50;;;6.90;99.90;;;;;;5059116;28;20037;-72
2023/10/16 03:16:16;;;;;;;1.15;0.40;;;6.80;99.90;;;;;;5020663;28;20024;-72
2023/10/16 03:18:44;;;;;;;1.52;0.47;;;6.70;99.90;;;;;;5032335;28;20064;-72
2023/10/16 03:23:42;;;;;;;0.65;0.47;;;6.70;99.90;;;;;;5047031;28;20399;-72
2023/10/16 03:26:50;;;;;;;0.88;0.38;;;6.80;99.90;;;;;;5052505;28;20087;-72
2023/10/16 03:29:04;;;;;;;3.20;0.60;;;6.90;99.90;;;;;;5047969;28;20041;-72
2023/10/16 03:31:30;;;;;;;5.18;0.50;;;6.90;99.90;;;;;;5026916;28;20044;-72
2023/10/16 03:33:56;;;;;;;3.05;0.60;;;6.90;99.90;;;;;;5033463;28;20200;-72
2023/10/16 03:36:23;;;;;;;3.45;0.70;;;7.00;99.90;;;;;;5034812;28;20040;-72
2023/10/16 03:38:52;;;;;;;4.78;0.70;;;7.00;99.90;;;;;;5023029;28;20043;-72
2023/10/16 03:43:45;;;;;;;1.40;0.68;;;7.10;99.90;;;;;;5046476;28;20131;-72
2023/10/16 03:46:11;;;;;;;3.30;0.65;;;7.10;99.90;;;;;;5029652;28;20145;-72
2023/10/16 03:48:41;;;;;;;5.47;0.65;;;7.10;99.90;;;;;;5031923;28;20044;-72
2023/10/16 03:51:07;;;;;;;2.00;0.57;;;7.10;99.90;;;;;;5026350;28;20060;-73
2023/10/16 03:53:37;;;;;;;2.38;0.50;;;7.20;99.90;;;;;;5046728;28;20061;-73
2023/10/16 03:56:05;;;;;;;2.20;0.60;;;7.30;99.90;;;;;;5047516;28;20045;-73
2023/10/16 03:58:35;;;;;;;3.38;0.73;;;7.20;99.90;;;;;;5046103;28;20033;-73
2023/10/16 04:01:10;;;;;;;2.20;0.70;;;7.30;99.90;;;;;;5056409;28;20711;-72
2023/10/16 04:03:56;;;;;;;1.50;0.65;;;7.30;99.90;;;;;;5034582;28;20115;-72
2023/10/16 04:06:23;;;;;;;2.72;0.77;;;7.30;99.90;;;;;;5038325;28;20055;-72
2023/10/16 04:08:51;;;;;;;2.70;0.63;;;7.30;99.90;;;;;;5032764;28;20043;-72
2023/10/16 04:11:18;;;;;;;4.57;0.70;;;7.30;99.90;;;;;;5034186;28;20041;-72
2023/10/16 04:13:52;;;;;;;0.88;0.55;;;7.30;99.90;;;;;;5042280;28;20124;-73
2023/10/16 04:19:52;;;;;;;3.60;0.75;;;7.30;99.90;;;;;;5046297;28;20095;-73
2023/10/16 04:22:27;;;;;;;2.70;1.30;;;7.40;99.90;;;;;;5046615;28;20161;-72
2023/10/16 04:24:45;;;;;;;2.40;0.68;;;7.30;99.90;;;;;;5028642;28;20050;-72
2023/10/16 04:32:27;;;;;;;5.38;0.93;;;7.30;99.90;;;;;;5044178;28;20134;-72
2023/10/16 04:34:53;;;;;;;2.92;0.93;;;7.20;99.90;;;;;;5043084;28;20045;-72
2023/10/16 04:37:40;;;;;;;1.88;0.70;;;7.10;99.90;;;;;;5028151;28;20036;-73
2023/10/16 04:48:06;;;;;;;1.98;0.90;;;7.10;99.90;;;;;;5046176;28;20060;-72
2023/10/16 04:53:09;;;;;;;3.22;1.10;;;7.00;99.90;;;;;;5044055;28;20087;-72
2023/10/16 04:58:27;;;;;;;1.42;0.80;;;6.80;99.90;;;;;;5041332;28;20098;-73
2023/10/16 05:14:28;;;;;;;1.83;0.80;;;6.70;99.90;;;;;;5043650;28;19916;-72
2023/10/16 05:19:46;;;;;;;6.20;1.10;;;6.60;99.90;;;;;;5046022;28;20045;-73
2023/10/16 06:14:17;;;;;;;6.47;1.38;;;6.30;99.90;;;;;;5033096;28;20743;-72
2023/10/16 06:16:54;;;;;;;2.95;1.60;;;6.10;99.90;;;;;;5045306;28;20462;-72
2023/10/16 06:19:22;;;;;;;4.25;1.50;;;6.10;99.90;;;;;;5050936;28;20045;-72
2023/10/16 06:21:54;;;;;;;3.65;1.45;;;6.30;99.90;;;;;;5040981;28;20067;-72
2023/10/16 06:24:32;;;;;;;5.18;1.90;;;6.50;99.90;;;;;;5035211;28;20041;-72
2023/10/16 06:27:00;;;;;;;4.25;1.38;;;6.60;99.90;;;;;;5025143;28;20702;-73
2023/10/16 06:29:34;;;;;;;2.13;1.70;;;6.70;99.90;;;;;;5020185;28;20203;-72
2023/10/16 06:32:07;;;;;;;4.90;1.38;;;6.90;99.90;;;;;;5043663;28;20503;-72
2023/10/16 06:34:36;;;;;;;4.30;1.33;;;6.90;99.90;;;;;;5040889;28;20098;-73
2023/10/16 06:37:09;;;;;;;2.30;1.15;;;7.00;99.90;;;;;;5027461;28;20496;-72
2023/10/16 06:39:35;;;;;;;5.95;1.50;;;7.20;99.90;;;;;;5042695;28;20033;-72
2023/10/16 06:42:04;;;;;;;2.58;1.30;;;7.30;99.90;;;;;;5024621;28;20080;-72
2023/10/16 06:44:34;;;;;;;2.38;1.33;;;7.20;99.90;;;;;;5021847;28;20063;-72
2023/10/16 06:47:00;;;;;;;4.30;1.55;;;7.30;99.90;;;;;;5042932;28;20048;-72
2023/10/16 06:49:37;;;;;;;5.15;1.58;;;7.40;99.90;;;;;;5027639;28;20080;-72
2023/10/16 06:52:06;;;;;;;6.43;1.60;;;7.40;99.90;;;;;;5053630;28;20057;-72
2023/10/16 06:54:37;;;;;;;5.53;1.63;;;7.40;99.90;;;;;;5029403;28;20033;-72
2023/10/16 06:57:12;;;;;;;4.50;2.08;;;7.60;99.90;;;;;;5044424;28;20057;-72
2023/10/16 06:59:50;;;;;;;7.18;1.42;;;7.70;99.90;;;;;;5042190;28;20033;-72
2023/10/16 07:02:16;;;;;;;6.20;1.60;;;7.70;99.90;;;;;;5044152;28;20033;-71
2023/10/16 07:04:44;;;;;;;3.65;1.45;;;7.70;99.90;;;;;;5063253;28;20029;-72
2023/10/16 07:07:17;;;;;;;4.68;1.40;;;7.80;99.90;;;;;;5030536;28;20029;-72
2023/10/16 07:09:54;;;;;;;6.10;1.65;;;7.90;99.90;;;;;;5029158;28;20056;-72
2023/10/16 07:12:22;;;;;;;3.88;1.35;;;8.00;99.90;;;;;;5030842;28;20075;-72
2023/10/16 07:14:57;;;;;;;3.10;1.30;;;8.00;99.90;;;;;;5046248;28;20045;-72
2023/10/16 07:17:28;;;;;;;4.10;1.23;;;8.00;99.90;;;;;;5030124;28;20037;-72
2023/10/16 07:19:59;;;;;;;5.75;1.33;;;8.10;99.90;;;;;;5046418;28;20088;-72
2023/10/16 07:22:32;;;;;;;8.75;1.88;;;8.10;99.90;;;;;;5035443;28;20043;-72
2023/10/16 07:27:47;;;;;;;3.33;1.05;;;8.20;99.90;;;;;;5048631;28;20406;-72
2023/10/16 07:30:22;;;;;;;3.75;1.30;;;8.30;99.90;;;;;;5049175;28;20045;-73
2023/10/16 07:32:51;;;;;;;5.20;1.35;;;8.30;99.90;;;;;;5030706;28;20065;-73
2023/10/16 07:35:23;;;;;;;3.63;1.23;;;8.30;99.90;;;;;;5031125;28;20040;-74
2023/10/16 07:37:53;;;;;;;4.13;1.20;;;8.30;99.90;;;;;;5049167;28;20040;-74
2023/10/16 07:40:25;;;;;;;3.22;2.03;;;8.40;99.90;;;;;;5051892;28;20140;-72
2023/10/16 07:42:52;;;;;;;3.63;1.50;;;8.40;99.90;;;;;;5026346;28;20529;-72
2023/10/16 07:45:21;;;;;;;5.32;1.48;;;8.40;99.90;;;;;;5036553;28;20060;-72
2023/10/16 07:47:48;;;;;;;5.78;1.40;;;8.40;99.90;;;;;;5053429;28;20491;-72
2023/10/16 07:50:15;;;;;;;5.95;1.67;;;8.40;99.90;;;;;;5040959;28;20037;-72
2023/10/16 07:52:42;;;;;;;4.47;1.40;;;8.40;99.90;;;;;;5052776;28;20061;-73
2023/10/16 07:55:18;;;;;;;1.98;1.02;;;8.30;99.90;;;;;;5026184;28;20044;-73
2023/10/16 07:57:44;;;;;;;4.95;1.23;;;8.40;99.90;;;;;;5028439;28;20116;-74
2023/10/16 08:00:14;;;;;;;5.10;1.50;;;8.40;99.90;;;;;;5045988;28;20695;-74
2023/10/16 08:02:47;;;;;;;2.92;1.35;;;8.50;99.90;;;;;;5028273;28;20506;-74
2023/10/16 08:05:16;;;;;;;3.92;1.50;;;8.50;99.90;;;;;;5058381;28;20041;-74
2023/10/16 08:07:47;;;;;;;6.50;1.40;;;8.60;99.90;;;;;;5046623;28;20036;-74
2023/10/16 08:10:42;;;;;;;7.43;1.40;;;8.60;99.90;;;;;;5039822;28;20053;-74
2023/10/16 08:13:11;;;;;;;3.67;1.60;;;8.70;99.90;;;;;;5023894;28;20041;-74
2023/10/16 08:15:49;;;;;;;2.90;1.40;;;8.80;99.90;;;;;;5026754;28;20033;-74
2023/10/16 08:18:18;;;;;;;2.50;1.20;;;8.80;99.90;;;;;;5046335;28;20033;-74
2023/10/16 08:23:35;;;;;;;2.90;1.20;;;8.90;99.90;;;;;;5045651;28;20051;-74
2023/10/16 08:26:14;;;;;;;6.68;1.40;;;9.00;99.90;;;;;;5023683;28;20123;-74
2023/10/16 08:28:45;;;;;;;3.08;1.23;;;9.00;99.90;;;;;;5029709;28;20037;-74
2023/10/16 08:31:23;;;;;;;4.28;2.03;;;9.30;99.90;;;;;;5045024;28;20041;-74
2023/10/16 08:33:56;;;;;;;2.63;1.52;;;9.50;99.90;;;;;;5046061;28;20037;-74
2023/10/16 08:36:23;;;;;;;7.30;1.67;;;9.70;99.90;;;;;;5023245;28;20491;-74
2023/10/16 08:38:55;;;;;;;5.25;4.00;;;9.90;99.90;;;;;;5027918;28;20044;-73
2023/10/16 08:41:31;;;;;;;8.43;3.90;;;10.00;99.90;;;;;;5026469;28;20179;-74
2023/10/16 08:44:04;;;;;;;5.10;2.13;;;10.20;99.90;;;;;;5041043;28;20044;-73
2023/10/16 08:46:31;;;;;;;4.80;2.20;;;10.30;99.90;;;;;;5029099;28;20492;-73
2023/10/16 08:48:58;;;;;;;10.82;1.98;;;10.40;99.90;;;;;;5045077;28;20592;-73
2023/10/16 08:51:28;;;;;;;5.18;0.90;;;10.50;99.90;;;;;;5038866;28;20049;-73
2023/10/16 08:53:58;;;;;;;3.38;0.80;;;10.50;99.90;;;;;;5044870;28;20186;-73
2023/10/16 08:56:25;;;;;;;3.50;2.05;;;10.50;99.90;;;;;;5044300;28;20049;-73
2023/10/16 08:58:58;;;;;;;6.35;1.42;;;10.60;99.90;;;;;;5029897;28;20395;-73
2023/10/16 09:01:28;;;;;;;4.65;1.60;;;10.60;99.90;;;;;;5034821;28;20041;-73
2023/10/16 09:04:05;;;;;;;2.47;0.98;;;10.60;99.90;;;;;;5040265;28;20076;-73
2023/10/16 09:06:34;;;;;;;2.72;1.10;;;10.60;99.90;;;;;;5055295;28;20045;-73
2023/10/16 09:09:00;;;;;;;4.05;1.08;;;10.70;99.90;;;;;;5028734;28;20126;-73
2023/10/16 09:11:27;;;;;;;5.82;0.93;;;10.70;99.90;;;;;;5046964;28;20051;-73
2023/10/16 09:13:53;;;;;;;7.05;0.90;;;10.90;99.90;;;;;;5043952;28;20033;-73
2023/10/16 09:16:24;;;;;;;4.00;1.08;;;11.00;99.90;;;;;;5045205;28;20052;-73
2023/10/16 09:18:53;;;;;;;3.97;0.95;;;11.00;99.90;;;;;;5042827;28;20068;-73
2023/10/16 09:21:23;;;;;;;3.90;0.85;;;11.00;99.90;;;;;;5025211;28;20033;-73
2023/10/16 09:23:52;;;;;;;4.65;0.70;;;10.90;99.90;;;;;;5043698;28;20037;-73
2023/10/16 09:26:23;;;;;;;2.95;0.73;;;10.70;99.90;;;;;;5025069;28;20045;-73
2023/10/16 09:28:53;;;;;;;4.10;1.00;;;10.70;99.90;;;;;;5026811;28;20033;-73
2023/10/16 09:31:27;;;;;;;4.00;1.02;;;10.70;99.90;;;;;;5042640;28;20518;-73
2023/10/16 09:33:53;;;;;;;6.38;0.90;;;10.70;99.90;;;;;;5029987;28;20044;-73
2023/10/16 09:36:20;;;;;;;5.72;1.45;;;10.70;99.90;;;;;;5043013;28;20037;-73
2023/10/16 09:38:56;;;;;;;6.75;1.05;;;10.80;99.90;;;;;;5061139;28;20041;-73
2023/10/16 09:44:06;;;;;;;3.60;1.23;;;11.00;99.90;;;;;;5045988;28;20809;-73
2023/10/16 09:49:13;;;;;;;2.85;0.60;;;11.40;99.90;;;;;;5062017;28;20084;-73
2023/10/16 09:51:45;;;;;;;3.38;1.02;;;11.50;99.90;;;;;;5045432;28;20487;-73
2023/10/16 09:54:13;;;;;;;3.25;0.60;;;11.50;99.90;;;;;;5028564;28;20471;-73
2023/10/16 09:56:44;;;;;;;3.05;0.77;;;11.30;99.90;;;;;;5044609;28;20704;-73
2023/10/16 09:59:26;;;;;;;3.63;0.55;;;11.20;99.90;;;;;;5027199;28;20047;-73
2023/10/16 10:01:55;;;;;;;3.72;0.90;;;11.10;99.90;;;;;;5045614;28;20121;-73
2023/10/16 10:04:24;;;;;;;5.22;1.48;;;11.10;99.90;;;;;;5025102;28;20045;-73
2023/10/16 10:06:58;;;;;;;2.38;0.70;;;11.20;99.90;;;;;;5039325;28;20052;-73
2023/10/16 10:09:44;;;;;;;2.05;0.50;;;11.30;99.90;;;;;;5051987;28;20041;-73
2023/10/16 10:12:37;;;;;;;2.13;0.50;;;11.40;99.90;;;;;;5044678;28;20416;-73
2023/10/16 10:15:25;;;;;;;3.63;0.75;;;11.30;99.90;;;;;;5027075;28;20078;-73
2023/10/16 10:17:54;;;;;;;2.75;0.50;;;11.40;99.90;;;;;;5022926;28;20040;-73
2023/10/16 10:20:31;;;;;;;5.20;0.80;;;11.50;99.90;;;;;;5041974;28;20063;-73
2023/10/16 10:23:08;;;;;;;5.32;0.90;;;11.40;99.90;;;;;;5040980;28;20075;-73
2023/10/16 10:25:36;;;;;;;2.45;0.50;;;11.50;99.90;;;;;;5041013;28;20037;-73
2023/10/16 10:28:22;;;;;;;3.70;0.52;;;11.40;99.90;;;;;;5021741;28;20032;-73
2023/10/16 10:30:49;;;;;;;2.97;0.63;;;11.40;99.90;;;;;;5026188;28;20044;-74
2023/10/16 10:33:38;;;;;;;5.35;0.55;;;11.30;99.90;;;;;;5026417;28;20037;-73
2023/10/16 10:36:29;;;;;;;4.05;0.93;;;11.40;99.90;;;;;;5043009;28;20044;-73
2023/10/16 10:39:24;;;;;;;3.53;0.65;;;11.50;99.90;;;;;;5044245;28;20032;-73
2023/10/16 10:41:54;;;;;;;3.08;0.60;;;11.60;99.90;;;;;;5045069;28;20048;-74
2023/10/16 10:44:28;;;;;;;2.55;0.90;;;11.70;99.90;;;;;;5042107;28;20041;-74
2023/10/16 10:46:54;;;;;;;5.78;0.85;;;11.80;99.90;;;;;;5026461;28;20037;-73
2023/10/16 10:49:33;;;;;;;4.35;0.80;;;11.90;99.90;;;;;;5039409;28;20041;-74
2023/10/16 10:52:07;;;;;;;2.30;0.70;;;12.00;99.90;;;;;;5030468;28;20053;-74
2023/10/16 10:54:34;;;;;;;4.93;0.65;;;12.10;99.90;;;;;;5027466;28;20044;-73
2023/10/16 10:57:07;;;;;;;5.93;1.77;;;12.10;99.90;;;;;;5048651;28;20096;-74
2023/10/16 10:59:39;;;;;;;3.58;0.75;;;12.20;99.90;;;;;;5044176;28;20108;-73
2023/10/16 11:02:20;;;;;;;2.78;0.60;;;12.40;99.90;;;;;;5021907;28;20069;-74
2023/10/16 11:04:53;;;;;;;3.25;1.33;;;12.40;99.90;;;;;;5029305;28;20041;-74
2023/10/16 11:07:25;;;;;;;1.70;0.40;;;12.50;99.90;;;;;;5029629;28;20542;-74
2023/10/16 11:09:56;;;;;;;1.30;0.50;;;12.60;99.90;;;;;;5040083;28;20641;-73
2023/10/16 11:12:26;;;;;;;3.08;1.05;;;12.60;99.90;;;;;;5048833;28;20041;-74
2023/10/16 11:14:53;;;;;;;3.92;0.50;;;12.60;99.90;;;;;;5029408;28;20122;-74
2023/10/16 11:17:32;;;;;;;2.20;0.90;;;12.60;99.90;;;;;;5048581;28;20033;-73
2023/10/16 11:20:11;;;;;;;4.28;0.55;;;12.90;99.90;;;;;;5044808;28;20447;-74
2023/10/16 11:22:43;;;;;;;2.85;0.60;;;13.10;99.90;;;;;;5060674;28;20044;-74
2023/10/16 11:25:12;;;;;;;5.55;0.82;;;13.20;99.90;;;;;;5044669;28;20718;-73
2023/10/16 11:27:42;;;;;;;1.73;0.70;;;13.20;99.90;;;;;;5026962;28;20128;-73
2023/10/16 11:30:13;;;;;;;1.85;0.60;;;13.20;99.90;;;;;;5042257;28;20041;-73
2023/10/16 11:32:46;;;;;;;2.70;0.47;;;13.20;99.90;;;;;;5027673;28;20051;-74
2023/10/16 11:35:17;;;;;;;5.45;0.90;;;13.20;99.90;;;;;;5026770;28;20064;-74
2023/10/16 11:37:59;;;;;;;3.17;0.80;;;13.20;99.90;;;;;;5041996;28;20403;-73
2023/10/16 11:40:39;;;;;;;4.03;1.10;;;13.20;99.90;;;;;;5021357;28;20484;-74
2023/10/16 11:43:19;;;;;;;4.70;0.60;;;13.20;99.90;;;;;;5031320;28;20212;-74
2023/10/16 11:45:53;;;;;;;1.70;0.63;;;13.30;99.90;;;;;;5038489;28;20051;-74
2023/10/16 11:51:10;;;;;;;4.93;0.68;;;13.40;99.90;;;;;;5044183;28;20049;-74
2023/10/16 11:53:37;;;;;;;2.45;0.55;;;13.50;99.90;;;;;;5047023;28;20202;-74
2023/10/16 11:56:03;;;;;;;1.95;0.43;;;13.60;99.90;;;;;;5029793;28;20064;-74
2023/10/16 11:58:31;;;;;;;2.00;1.02;;;13.60;99.90;;;;;;5029671;28;20555;-74
2023/10/16 12:01:08;;;;;;;2.83;0.60;;;13.40;99.90;;;;;;5053641;28;20100;-74
2023/10/16 12:03:37;;;;;;;3.53;0.68;;;13.10;99.90;;;;;;5023979;28;20040;-74
2023/10/16 12:06:08;;;;;;;2.67;0.50;;;12.70;99.90;;;;;;5029343;28;20041;-73
2023/10/16 12:08:35;;;;;;;4.00;0.63;;;12.40;99.90;;;;;;5063899;28;20590;-74
2023/10/16 12:11:01;;;;;;;6.38;1.13;;;12.20;99.90;;;;;;5058096;28;20084;-74
2023/10/16 12:13:27;;;;;;;2.60;0.43;;;12.10;99.90;;;;;;5030549;28;20083;-74
2023/10/16 12:15:53;;;;;;;3.85;0.60;;;12.00;99.90;;;;;;5031120;28;20033;-74
2023/10/16 12:18:21;;;;;;;4.03;0.52;;;12.00;99.90;;;;;;5029835;28;20099;-73
2023/10/16 12:20:47;;;;;;;6.03;1.40;;;12.20;99.90;;;;;;5026070;28;20040;-74
2023/10/16 12:23:14;;;;;;;1.67;0.60;;;12.30;99.90;;;;;;5029635;28;20048;-74
2023/10/16 12:25:40;;;;;;;2.13;0.60;;;12.30;99.90;;;;;;5031136;28;20044;-74
2023/10/16 12:28:08;;;;;;;6.93;1.52;;;12.40;99.90;;;;;;5046221;28;20041;-74
2023/10/16 12:30:36;;;;;;;5.70;0.70;;;12.50;99.90;;;;;;5046709;28;20094;-74
2023/10/16 12:33:06;;;;;;;1.10;0.45;;;12.70;99.90;;;;;;5028583;28;20507;-74
2023/10/16 12:35:34;;;;;;;3.80;0.60;;;12.90;99.90;;;;;;5038365;28;20192;-74
2023/10/16 12:38:07;;;;;;;3.13;0.60;;;13.10;99.90;;;;;;5028844;28;20047;-74
2023/10/16 12:40:37;;;;;;;1.85;0.40;;;13.10;99.90;;;;;;5046555;28;20506;-74
2023/10/16 12:43:05;;;;;;;5.18;0.63;;;13.20;99.90;;;;;;5029465;28;20041;-74
2023/10/16 12:45:32;;;;;;;4.55;0.80;;;13.20;99.90;;;;;;5047114;28;20048;-74
2023/10/16 12:47:58;;;;;;;1.73;0.50;;;13.30;99.90;;;;;;5062375;28;20572;-74
2023/10/16 12:50:26;;;;;;;2.22;0.50;;;13.40;99.90;;;;;;5045158;28;20044;-74
2023/10/16 12:52:54;;;;;;;2.38;0.70;;;13.50;99.90;;;;;;5026785;28;20135;-74
2023/10/16 12:55:22;;;;;;;3.05;0.73;;;13.50;99.90;;;;;;5046308;28;20029;-74
2023/10/16 12:57:48;;;;;;;7.28;0.80;;;13.50;99.90;;;;;;5046406;28;20049;-74
2023/10/16 13:00:16;;;;;;;2.83;0.57;;;13.50;99.90;;;;;;5029471;28;20052;-74
2023/10/16 13:02:43;;;;;;;2.78;0.65;;;13.50;99.90;;;;;;5024956;28;20037;-73
2023/10/16 13:05:13;;;;;;;3.63;0.60;;;13.50;99.90;;;;;;5045809;28;20124;-74
2023/10/16 13:07:47;;;;;;;1.30;0.85;;;13.50;99.90;;;;;;5029412;28;20063;-74
2023/10/16 13:10:20;;;;;;;4.00;0.70;;;13.40;98.70;;;;;;5061076;28;20049;-73
2023/10/16 13:12:46;;;;;;;3.42;0.38;;;13.40;92.50;;;;;;5024456;28;20025;-74
2023/10/16 13:15:24;;;;;;;2.50;0.60;;;13.20;96.70;;;;;;5045005;28;20518;-73
2023/10/16 13:17:50;;;;;;;3.58;0.50;;;13.10;84.80;;;;;;5028822;28;20033;-73
2023/10/16 13:20:19;;;;;;;3.17;0.75;;;12.90;57.70;;;;;;5034230;28;20036;-75
2023/10/16 13:22:54;;;;;;;2.75;0.60;;;12.70;46.10;;;;;;5018485;28;20088;-75
2023/10/16 13:25:25;;;;;;;6.53;0.85;;;12.60;31.50;;;;;;5044066;28;20041;-74
2023/10/16 13:27:55;;;;;;;1.48;0.47;;;12.60;73.50;;;;;;5031981;28;20042;-75
2023/10/16 13:30:22;;;;;;;5.53;1.02;;;12.50;67.80;;;;;;5045321;28;20567;-74
2023/10/16 13:32:49;;;;;;;3.50;0.30;;;12.50;81.30;;;;;;5027730;28;20037;-75
2023/10/16 13:35:20;;;;;;;2.90;0.60;;;12.60;99.60;;;;;;5039842;28;20036;-75
2023/10/16 13:37:47;;;;;;;4.70;0.60;;;12.70;94.40;;;;;;5022511;28;20523;-75
2023/10/16 13:40:21;;;;;;;6.60;4.10;;;12.90;99.90;;;;;;5045567;28;20080;-75
2023/10/16 13:43:00;;;;;;;3.67;1.00;;;13.00;99.90;;;;;;5029138;28;20041;-74
2023/10/16 13:45:27;;;;;;;7.30;1.10;;;13.10;99.90;;;;;;5043677;28;20037;-75
2023/10/16 13:47:54;;;;;;;3.05;0.70;;;13.20;99.90;;;;;;5031997;28;20108;-74
2023/10/16 13:50:24;;;;;;;2.92;0.80;;;13.20;99.90;;;;;;5028748;28;20041;-74
2023/10/16 13:52:53;;;;;;;2.53;0.50;;;13.20;99.90;;;;;;5045140;28;20044;-74
2023/10/16 13:55:20;;;;;;;3.00;0.80;;;13.30;99.90;;;;;;5043959;28;20045;-75
2023/10/16 13:57:48;;;;;;;2.35;0.57;;;13.30;96.10;;;;;;5045639;28;20045;-74
2023/10/16 14:00:31;;;;;;;2.63;1.08;;;13.30;96.60;;;;;;5017779;28;20045;-74
2023/10/16 14:03:10;;;;;;;3.25;0.60;;;13.30;94.70;;;;;;5009723;28;20037;-75
2023/10/16 14:05:42;;;;;;;5.97;0.93;;;13.30;77.40;;;;;;5022265;28;20094;-74
2023/10/16 14:08:09;;;;;;;6.70;0.80;;;13.30;93.00;;;;;;5029047;28;20033;-74
2023/10/16 14:10:36;;;;;;;2.92;1.25;;;13.30;73.60;;;;;;5025594;28;20033;-74
2023/10/16 14:13:10;;;;;;;5.93;0.82;;;13.30;66.90;;;;;;5035961;28;21464;-74
2023/10/16 14:15:41;;;;;;;4.13;0.77;;;13.30;38.50;;;;;;5026824;28;20040;-74
2023/10/16 14:18:14;;;;;;;3.72;0.90;;;13.30;47.20;;;;;;5045162;28;20087;-75
2023/10/16 14:20:45;;;;;;;2.40;0.63;;;13.30;47.70;;;;;;5027940;28;20106;-74
2023/10/16 14:23:12;;;;;;;6.50;1.00;;;13.20;25.50;;;;;;5027665;28;20045;-75
2023/10/16 14:25:57;;;;;;;5.43;0.75;;;13.10;9.00;;;;;;5027222;28;20051;-74
2023/10/16 14:31:01;;;;;;;4.00;1.70;;;13.00;26.60;;;;;;5052367;28;20092;-74
2023/10/16 14:33:28;;;;;;;2.97;0.90;;;13.00;33.60;;;;;;5044640;28;20464;-74
2023/10/16 14:35:56;;;;;;;4.75;1.00;;;12.90;31.90;;;;;;5045053;28;20041;-74
2023/10/16 14:38:22;;;;;;;2.53;1.10;;;12.90;26.40;;;;;;5043156;28;20041;-74
2023/10/16 14:40:48;;;;;;;4.80;0.50;;;12.80;14.60;;;;;;5044463;28;20128;-74
2023/10/16 14:43:17;;;;;;;4.97;0.68;;;12.70;1.60;;;;;;5044675;28;20248;-74
2023/10/16 14:45:49;;;;;;;1.92;0.88;;;12.70;1.00;;;;;;5038297;28;20469;-74
2023/10/16 14:48:18;;;;;;;5.28;0.65;;;12.60;16.10;;;;;;5027270;28;20116;-74
2023/10/16 14:50:47;;;;;;;3.40;0.65;;;12.50;26.20;;;;;;5042824;28;20036;-75
2023/10/16 14:53:17;;;;;;;2.95;1.00;;;12.50;30.40;;;;;;5044585;28;20103;-74
2023/10/16 14:55:42;;;;;;;2.95;1.80;;;12.50;28.90;;;;;;5027667;28;20095;-74
2023/10/16 14:58:10;;;;;;;4.55;0.52;;;12.40;26.10;;;;;;5028212;28;20037;-75
2023/10/16 15:00:41;;;;;;;3.92;1.10;;;12.30;31.30;;;;;;5026285;28;20068;-75
2023/10/16 15:03:11;;;;;;;9.38;2.28;;;12.30;36.00;;;;;;5044758;28;20062;-75